Naven, Sweden

7:44 AM CET on February 20, 2017 (GMT +0100)
Lidköping | | Change Station

Elev 0 ft 58.53 °N, 13.12 °E | Updated 3 minutes ago

Overcast
Overcast
41.0 °F
Feels Like 38 °F
N
4.3
Wind Variable Wind from SSW
Gusts 9.3 mph

Today
High -- | Low -- °F
--% Chance of Precip.
Yesterday
High -- | Low -- °F
Precip. -- in
Pressure 29.33 in
Visibility 4.3 miles
Clouds Overcast 500 ft
Windchill 38 °F
Dew Point 41 °F
Humidity 99%
Rainfall 0.02 in
Snow Depth Not available.
7:27 AM 5:15 PM
Last Quarter, 36% visible
METAR ESIB 200620Z 23019KT 7000 -RA BR OVC005 05/04 Q0993
Pressure 29.33 in
Visibility 4.3 miles
Clouds Overcast 500 ft
Windchill 38 °F
Dew Point 41 °F
Humidity 99%
Rainfall 0.02 in
Snow Depth Not available.
7:27 AM 5:15 PM
Last Quarter, 36% visible
METAR ESIB 200620Z 23019KT 7000 -RA BR OVC005 05/04 Q0993

Get Your Daily Forecast Email!

Thanks for signing up!

Be on the lookout for a verification email in your inbox.

You'll start receiving the daily forecast at 8 AM.

×

10-Day Weather Forecast

×

Almanac

Astronomy

Feb. 20, 2017 Rise Set
Actual Time
Civil Twilight
Nautical Twilight
Astronomical Twilight
Moon
Length of Visible Light
Length of Day
Tomorrow will be .
, % of the Moon is Illuminated

Today's Extremes

Country Highs Country Lows

Community

WunderPhotos

Upload Photos

1,962,540 photos uploaded!

WunderBlog® & News

Nearby

Air Quality

  Air Quality AQ Index Pollutant
Not available.

Snow Depth

Station Depth Elevation

Earthquake Activity

City Distance Mag. Time & Date
Minimum magnitude displayed is 2.5.

Coastal Water Temperatures

Place Temperature

Stations

Nearby Weather Stations

Station Location Temp. Windchill Dew Point Humidity Wind Precip. Elev Updated Type